Time;durP1;ratioP1;P1;durP2;ratioP2;P2;SDS_P1;SDS_P2;PMS_P1;PMS_P2;Temp;Humidity;BMP_temperature;BMP_pressure;BME280_temperature;BME280_humidity;BME280_pressure;Samples;Min_cycle;Max_cycle;Signal;HPM_P1;HPM_P2
2023/01/09 00:01:40;;;;;;;;;;;;;;;16.79;69.22;101337.06;7400435;19;1306;-41
2023/01/09 00:04:09;;;;;;;;;;;;;;;16.64;69.08;101323.81;7400204;19;1926;-41
2023/01/09 00:06:38;;;;;;;;;;;;;;;16.72;69.22;101341.13;7407415;19;1242;-41
2023/01/09 00:09:07;;;;;;;;;;;;;;;16.68;69.62;101341.34;7408364;19;2068;-41
2023/01/09 00:11:36;;;;;;;;;;;;;;;16.70;69.05;101338.56;7407051;19;1994;-41
2023/01/09 00:14:04;;;;;;;;;;;;;;;16.68;69.53;101340.50;7405216;19;2011;-41
2023/01/09 00:16:35;;;;;;;;;;;;;;;16.66;69.44;101343.25;7405829;19;1629;-41
2023/01/09 00:19:03;;;;;;;;;;;;;;;16.65;69.22;101330.88;7404759;19;1791;-41
2023/01/09 00:21:32;;;;;;;;;;;;;;;16.65;69.37;101349.56;7407700;19;1461;-41
2023/01/09 00:24:00;;;;;;;;;;;;;;;16.63;69.12;101326.59;7407532;19;1398;-40
2023/01/09 00:26:28;;;;;;;;;;;;;;;16.61;69.44;101324.03;7407226;19;1047;-41
2023/01/09 00:28:57;;;;;;;;;;;;;;;16.62;69.57;101339.09;7403842;19;2092;-42
2023/01/09 00:31:25;;;;;;;;;;;;;;;16.61;69.13;101323.16;7404423;19;1846;-41
2023/01/09 00:34:00;;;;;;;;;;;;;;;16.61;69.56;101331.19;7407207;19;1656;-41
2023/01/09 00:36:28;;;;;;;;;;;;;;;16.59;69.15;101333.09;7405223;19;1956;-41
2023/01/09 00:38:57;;;;;;;;;;;;;;;16.57;69.44;101338.53;7402615;19;2057;-41
2023/01/09 00:41:27;;;;;;;;;;;;;;;16.55;69.37;101340.47;7407711;19;1025;-42
2023/01/09 00:43:59;;;;;;;;;;;;;;;16.53;69.65;101329.03;7405429;19;1784;-41
2023/01/09 00:46:31;;;;;;;;;;;;;;;16.58;69.24;101334.06;7404822;19;1937;-41
2023/01/09 00:49:04;;;;;;;;;;;;;;;16.56;69.21;101336.84;7406733;19;1043;-41
2023/01/09 00:51:32;;;;;;;;;;;;;;;16.53;69.45;101323.69;7404293;19;1867;-40
2023/01/09 00:54:01;;;;;;;;;;;;;;;16.52;69.21;101319.34;7406372;19;1647;-41
2023/01/09 00:56:29;;;;;;;;;;;;;;;16.50;69.40;101332.78;7406345;19;1894;-41
2023/01/09 00:58:59;;;;;;;;;;;;;;;16.54;69.16;101324.56;7406299;19;1755;-41
2023/01/09 01:01:27;;;;;;;;;;;;;;;16.52;69.38;101327.34;7405539;19;1636;-41
2023/01/09 01:03:55;;;;;;;;;;;;;;;16.53;69.15;101331.69;7404978;19;2012;-41
2023/01/09 01:09:12;;;;;;;;;;;;;;;16.51;69.28;101325.63;7400314;19;1738;-41
2023/01/09 01:11:41;;;;;;;;;;;;;;;16.46;69.35;101319.75;7404868;19;1986;-41
2023/01/09 01:14:09;;;;;;;;;;;;;;;16.42;69.16;101302.25;7403406;19;2059;-41
2023/01/09 01:16:39;;;;;;;;;;;;;;;16.44;69.44;101321.69;7401445;19;1563;-42
2023/01/09 01:19:08;;;;;;;;;;;;;;;16.41;69.52;101303.19;7403892;19;1805;-41
2023/01/09 01:21:39;;;;;;;;;;;;;;;16.41;69.23;101287.16;7402717;19;1841;-41
2023/01/09 01:24:08;;;;;;;;;;;;;;;16.40;69.25;101310.34;7405580;19;1887;-41
2023/01/09 01:26:36;;;;;;;;;;;;;;;16.41;69.02;101303.19;7403020;19;1988;-41
2023/01/09 01:29:04;;;;;;;;;;;;;;;16.41;69.24;101289.84;7403056;19;2081;-41
2023/01/09 01:31:33;;;;;;;;;;;;;;;16.40;69.37;101270.31;7403833;19;2090;-41
2023/01/09 01:34:01;;;;;;;;;;;;;;;16.40;69.32;101270.31;7403101;19;1883;-41
2023/01/09 01:36:29;;;;;;;;;;;;;;;16.37;69.36;101261.66;7404644;19;1936;-41
2023/01/09 01:39:00;;;;;;;;;;;;;;;16.38;69.45;101268.72;7404404;19;1810;-41
2023/01/09 01:41:30;;;;;;;;;;;;;;;16.36;69.63;101265.31;7406513;19;1763;-41
2023/01/09 01:44:00;;;;;;;;;;;;;;;16.37;69.51;101269.66;7402459;19;1749;-41
2023/01/09 01:46:30;;;;;;;;;;;;;;;16.37;69.61;101283.00;7400620;19;2094;-41
2023/01/09 01:49:01;;;;;;;;;;;;;;;16.34;69.35;101261.88;7405301;19;1030;-41
2023/01/09 01:51:31;;;;;;;;;;;;;;;16.35;69.38;101256.41;7403517;19;1659;-41
2023/01/09 01:54:05;;;;;;;;;;;;;;;16.33;69.21;101246.81;7402651;19;1851;-41
2023/01/09 01:56:37;;;;;;;;;;;;;;;16.35;69.46;101252.91;7405628;19;950;-41
2023/01/09 01:59:08;;;;;;;;;;;;;;;16.32;69.31;101250.47;7403319;19;1780;-41
2023/01/09 02:01:39;;;;;;;;;;;;;;;16.35;69.47;101256.41;7402020;19;1814;-41
2023/01/09 02:04:08;;;;;;;;;;;;;;;16.34;69.45;101241.38;7402838;19;1582;-41
2023/01/09 02:06:37;;;;;;;;;;;;;;;16.33;69.20;101244.16;7404589;19;2180;-41
2023/01/09 02:09:09;;;;;;;;;;;;;;;16.32;69.36;101242.44;7404038;19;1940;-41
2023/01/09 02:11:37;;;;;;;;;;;;;;;16.34;69.31;101229.84;7404043;19;978;-41
2023/01/09 02:14:05;;;;;;;;;;;;;;;16.30;69.25;101227.38;7400581;19;2234;-41
2023/01/09 02:16:40;;;;;;;;;;;;;;;16.29;69.19;101223.03;7402070;19;1986;-41
2023/01/09 02:19:17;;;;;;;;;;;;;;;16.27;68.99;101224.06;7401696;19;1387;-41
2023/01/09 02:21:51;;;;;;;;;;;;;;;16.28;69.20;101237.31;7401451;19;1681;-41
2023/01/09 02:24:40;;;;;;;;;;;;;;;16.30;69.04;101223.88;7399986;19;1902;-41
2023/01/09 02:27:20;;;;;;;;;;;;;;;16.27;69.23;101224.06;7399155;19;1636;-41
2023/01/09 02:30:10;;;;;;;;;;;;;;;16.26;69.37;101199.22;7400361;19;1985;-41
2023/01/09 02:32:45;;;;;;;;;;;;;;;16.23;69.05;101207.41;7402517;19;1861;-41
2023/01/09 02:35:28;;;;;;;;;;;;;;;16.27;69.25;101219.59;7403193;19;2050;-41
2023/01/09 02:38:02;;;;;;;;;;;;;;;16.24;69.17;101201.13;7402690;19;2124;-41
2023/01/09 02:40:34;;;;;;;;;;;;;;;16.24;69.55;101202.94;7402950;19;1768;-41
2023/01/09 02:43:03;;;;;;;;;;;;;;;16.21;69.24;101201.31;7403370;19;1512;-41
2023/01/09 02:45:32;;;;;;;;;;;;;;;16.21;69.46;101204.00;7403581;19;1029;-41
2023/01/09 02:48:03;;;;;;;;;;;;;;;16.23;69.50;101210.06;7402693;19;2100;-41
2023/01/09 02:50:34;;;;;;;;;;;;;;;16.36;68.94;101193.25;7402692;19;1790;-41
2023/01/09 02:53:18;;;;;;;;;;;;;;;16.83;67.67;101183.66;7400904;19;1889;-41
2023/01/09 02:55:52;;;;;;;;;;;;;;;17.88;64.65;101193.66;7402908;19;1942;-41
2023/01/09 02:58:29;;;;;;;;;;;;;;;18.55;62.74;101175.97;7402618;19;1967;-41
2023/01/09 03:01:15;;;;;;;;;;;;;;;19.16;61.21;101190.75;7399707;19;1779;-41
2023/01/09 03:03:50;;;;;;;;;;;;;;;19.56;59.97;101185.63;7402818;19;1253;-41
2023/01/09 03:06:25;;;;;;;;;;;;;;;19.75;59.43;101182.25;7399670;19;1666;-41
2023/01/09 03:08:55;;;;;;;;;;;;;;;19.81;59.27;101186.25;7400995;19;1832;-41
2023/01/09 03:11:26;;;;;;;;;;;;;;;19.69;59.80;101185.44;7401131;19;1634;-41
2023/01/09 03:13:56;;;;;;;;;;;;;;;19.56;60.01;101184.78;7398760;19;1917;-41
2023/01/09 03:16:26;;;;;;;;;;;;;;;19.54;60.01;101178.69;7398381;19;2046;-41
2023/01/09 03:18:58;;;;;;;;;;;;;;;19.53;60.40;101174.31;7402195;19;1613;-41
2023/01/09 03:21:27;;;;;;;;;;;;;;;19.59;60.32;101203.28;7400257;19;1760;-42
2023/01/09 03:23:57;;;;;;;;;;;;;;;19.59;60.28;101181.81;7401227;19;1849;-41
2023/01/09 03:26:27;;;;;;;;;;;;;;;19.63;60.05;101194.00;7401266;19;2419;-41
2023/01/09 03:28:56;;;;;;;;;;;;;;;19.59;60.32;101189.88;7398733;19;2059;-41
2023/01/09 03:31:24;;;;;;;;;;;;;;;19.62;60.10;101186.94;7398251;19;2097;-41
2023/01/09 03:33:53;;;;;;;;;;;;;;;19.63;60.23;101202.06;7400020;19;1838;-41
2023/01/09 03:36:24;;;;;;;;;;;;;;;19.43;60.39;101188.47;7398027;19;2221;-41
2023/01/09 03:38:53;;;;;;;;;;;;;;;18.74;62.54;101183.41;7400576;19;1687;-41
2023/01/09 03:41:21;;;;;;;;;;;;;;;18.28;63.73;101192.41;7399600;19;1481;-41
2023/01/09 03:43:50;;;;;;;;;;;;;;;17.93;64.76;101181.78;7398580;19;2107;-40
2023/01/09 03:46:18;;;;;;;;;;;;;;;17.74;64.91;101201.00;7401362;19;1948;-40
2023/01/09 03:48:47;;;;;;;;;;;;;;;17.89;64.87;101198.06;7397548;19;1646;-41
2023/01/09 03:51:15;;;;;;;;;;;;;;;18.82;62.62;101204.22;7401238;19;1617;-41
2023/01/09 03:53:46;;;;;;;;;;;;;;;19.28;61.55;101217.44;7399602;19;1853;-41
2023/01/09 03:56:14;;;;;;;;;;;;;;;19.95;59.35;101196.66;7400563;19;1917;-41
2023/01/09 03:58:42;;;;;;;;;;;;;;;20.37;58.06;101204.69;7399108;19;1866;-40
2023/01/09 04:01:11;;;;;;;;;;;;;;;20.53;58.01;101206.91;7399871;19;1783;-41
2023/01/09 04:03:40;;;;;;;;;;;;;;;20.12;59.10;101200.59;7400480;19;2166;-41
2023/01/09 04:06:09;;;;;;;;;;;;;;;19.84;59.43;101192.22;7399898;19;1897;-41
2023/01/09 04:08:37;;;;;;;;;;;;;;;19.62;60.18;101192.31;7400065;19;1696;-41
2023/01/09 04:11:09;;;;;;;;;;;;;;;19.41;60.95;101209.22;7401310;19;1816;-41
2023/01/09 04:13:38;;;;;;;;;;;;;;;19.54;60.40;101226.97;7395696;19;2090;-41
2023/01/09 04:16:07;;;;;;;;;;;;;;;19.67;59.71;101204.34;7399992;19;1590;-40
2023/01/09 04:18:35;;;;;;;;;;;;;;;19.47;60.43;101200.66;7399648;19;1926;-42
2023/01/09 04:21:03;;;;;;;;;;;;;;;19.55;60.24;101204.53;7399785;19;1636;-40
2023/01/09 04:23:32;;;;;;;;;;;;;;;19.88;59.49;101213.44;7398856;19;1114;-41
2023/01/09 04:26:00;;;;;;;;;;;;;;;19.77;59.81;101207.13;7400239;19;1655;-40
2023/01/09 04:28:31;;;;;;;;;;;;;;;19.79;59.58;101207.84;7395545;19;2065;-41
2023/01/09 04:31:01;;;;;;;;;;;;;;;19.76;60.08;101231.44;7399790;19;1932;-41
2023/01/09 04:33:29;;;;;;;;;;;;;;;19.68;59.88;101208.75;7398057;19;1996;-41
2023/01/09 04:35:58;;;;;;;;;;;;;;;19.72;59.97;101214.75;7399001;19;1623;-40
2023/01/09 04:38:26;;;;;;;;;;;;;;;19.72;59.94;101217.41;7399604;19;1105;-41
2023/01/09 04:40:54;;;;;;;;;;;;;;;19.71;59.77;101229.13;7400038;19;1836;-41
2023/01/09 04:43:23;;;;;;;;;;;;;;;19.70;60.25;101238.13;7395641;19;1862;-40
2023/01/09 04:45:53;;;;;;;;;;;;;;;19.67;60.07;101233.00;7400638;19;1117;-40
2023/01/09 04:48:22;;;;;;;;;;;;;;;19.59;60.32;101238.16;7399606;19;1333;-40
2023/01/09 04:50:50;;;;;;;;;;;;;;;18.93;61.69;101239.06;7400073;19;2056;-40
2023/01/09 04:53:19;;;;;;;;;;;;;;;18.45;63.41;101234.78;7405163;19;2317;-40
2023/01/09 04:55:47;;;;;;;;;;;;;;;18.16;63.99;101246.88;7406187;19;1821;-41
2023/01/09 04:58:16;;;;;;;;;;;;;;;17.96;64.46;101249.25;7405725;19;1694;-40
2023/01/09 05:00:44;;;;;;;;;;;;;;;18.02;64.28;101248.78;7406416;19;1764;-40
2023/01/09 05:03:15;;;;;;;;;;;;;;;18.58;63.03;101242.72;7406219;19;1058;-40
2023/01/09 05:05:43;;;;;;;;;;;;;;;19.36;60.74;101240.94;7406412;19;1817;-41
2023/01/09 05:08:12;;;;;;;;;;;;;;;19.93;59.16;101238.03;7405047;19;2089;-40
2023/01/09 05:10:40;;;;;;;;;;;;;;;20.14;58.67;101235.38;7339749;19;13694;-41
2023/01/09 05:13:09;;;;;;;;;;;;;;;19.50;60.25;101226.38;7404044;19;1850;-41
2023/01/09 05:15:38;;;;;;;;;;;;;;;18.72;62.48;101230.91;7403322;19;1746;-40
2023/01/09 05:18:06;;;;;;;;;;;;;;;18.33;63.81;101218.81;7403146;19;2294;-40
2023/01/09 05:20:37;;;;;;;;;;;;;;;18.11;64.64;101238.38;7400730;19;2389;-41
2023/01/09 05:23:05;;;;;;;;;;;;;;;17.93;65.27;101244.16;7402410;19;2040;-41
2023/01/09 05:25:34;;;;;;;;;;;;;;;17.89;66.65;101238.19;7404337;19;1715;-41
2023/01/09 05:28:03;;;;;;;;;;;;;;;17.80;66.06;101221.94;7404038;19;1913;-40
2023/01/09 05:30:31;;;;;;;;;;;;;;;17.84;66.82;101243.03;7403341;19;1808;-41
2023/01/09 05:32:59;;;;;;;;;;;;;;;17.73;66.52;101213.53;7404641;19;2060;-41
2023/01/09 05:35:27;;;;;;;;;;;;;;;17.67;66.03;101232.72;7404125;19;1614;-41
2023/01/09 05:37:58;;;;;;;;;;;;;;;17.68;66.12;101251.31;7404277;19;1701;-41
2023/01/09 05:40:27;;;;;;;;;;;;;;;17.68;66.26;101245.97;7403977;19;1698;-41
2023/01/09 05:42:55;;;;;;;;;;;;;;;17.58;66.81;101231.59;7404050;19;1622;-41
2023/01/09 05:45:23;;;;;;;;;;;;;;;17.55;66.47;101230.97;7404268;19;1780;-40
2023/01/09 05:47:51;;;;;;;;;;;;;;;17.47;66.89;101239.56;7403868;19;1863;-40
2023/01/09 05:50:21;;;;;;;;;;;;;;;17.42;66.74;101225.69;7402049;19;1810;-41
2023/01/09 05:52:50;;;;;;;;;;;;;;;17.34;66.28;101225.41;7403487;19;1585;-40
2023/01/09 05:55:21;;;;;;;;;;;;;;;17.23;66.23;101231.50;7401088;19;1855;-40
2023/01/09 05:57:49;;;;;;;;;;;;;;;17.59;66.19;101227.13;7404530;19;2124;-40
2023/01/09 06:00:18;;;;;;;;;;;;;;;18.24;64.13;101223.94;7402497;19;2034;-40
2023/01/09 06:02:47;;;;;;;;;;;;;;;18.58;63.25;101223.97;7398372;19;1530;-41
2023/01/09 06:05:15;;;;;;;;;;;;;;;18.85;62.54;101214.72;7403480;19;1928;-40
2023/01/09 06:07:43;;;;;;;;;;;;;;;19.07;61.82;101203.94;7403074;19;1676;-40
2023/01/09 06:10:13;;;;;;;;;;;;;;;19.25;61.22;101211.47;7402049;19;1941;-40
2023/01/09 06:12:48;;;;;;;;;;;;;;;19.25;61.22;101214.13;7403451;19;1102;-40
2023/01/09 06:15:18;;;;;;;;;;;;;;;19.17;61.38;101216.59;7402333;19;1864;-40
2023/01/09 06:17:46;;;;;;;;;;;;;;;19.14;61.07;101220.41;7400885;19;2117;-40
2023/01/09 06:20:15;;;;;;;;;;;;;;;18.93;61.80;101200.69;7400673;19;1907;-40
2023/01/09 06:22:44;;;;;;;;;;;;;;;18.76;62.27;101205.56;7400062;19;1930;-40
2023/01/09 06:25:13;;;;;;;;;;;;;;;18.72;62.05;101208.59;7398216;19;1842;-40
2023/01/09 06:27:43;;;;;;;;;;;;;;;18.65;62.59;101201.03;7397322;19;1672;-40
2023/01/09 06:30:12;;;;;;;;;;;;;;;18.67;62.45;101184.84;7397404;19;1891;-41
2023/01/09 06:32:41;;;;;;;;;;;;;;;18.65;62.50;101209.09;7400863;19;1667;-41
2023/01/09 06:35:10;;;;;;;;;;;;;;;18.64;62.39;101196.69;7400786;19;1840;-40
2023/01/09 06:37:40;;;;;;;;;;;;;;;18.75;61.91;101209.19;7402259;19;1540;-41
2023/01/09 06:40:09;;;;;;;;;;;;;;;18.61;62.41;101207.63;7401635;19;1386;-40
2023/01/09 06:42:38;;;;;;;;;;;;;;;18.52;62.92;101203.00;7403872;19;1314;-41
2023/01/09 06:45:09;;;;;;;;;;;;;;;18.43;62.95;101199.22;7401892;19;2156;-40
2023/01/09 06:47:39;;;;;;;;;;;;;;;18.46;63.15;101206.16;7402298;19;2037;-40
2023/01/09 06:50:08;;;;;;;;;;;;;;;18.17;63.37;101197.75;7400462;19;1848;-40
2023/01/09 06:52:36;;;;;;;;;;;;;;;17.82;64.35;101203.97;7401887;19;1831;-40
2023/01/09 06:55:05;;;;;;;;;;;;;;;17.60;64.96;101199.38;7396198;19;2043;-41
2023/01/09 07:00:14;;;;;;;;;;;;;;;17.23;65.60;101202.13;7392999;19;1448;-76
2023/01/09 07:02:42;;;;;;;;;;;;;;;17.16;65.79;101195.53;7396909;19;1781;-76
2023/01/09 07:05:10;;;;;;;;;;;;;;;17.15;66.65;101209.84;7402570;19;1820;-76
2023/01/09 07:07:39;;;;;;;;;;;;;;;17.15;66.36;101215.19;7402069;19;1931;-77
2023/01/09 07:10:07;;;;;;;;;;;;;;;17.14;66.26;101213.50;7394759;19;2157;-76
2023/01/09 07:12:36;;;;;;;;;;;;;;;17.10;66.93;101235.09;7399525;19;1546;-76
2023/01/09 07:15:04;;;;;;;;;;;;;;;17.07;66.76;101208.63;7400189;19;1854;-76
2023/01/09 07:17:35;;;;;;;;;;;;;;;17.23;67.02;101213.69;7401789;19;1410;-76
2023/01/09 07:20:03;;;;;;;;;;;;;;;18.03;64.22;101206.84;7401369;19;1679;-76
2023/01/09 07:22:31;;;;;;;;;;;;;;;18.36;63.35;101187.28;7402442;19;1397;-76
2023/01/09 07:24:59;;;;;;;;;;;;;;;18.65;62.68;101182.28;7401388;19;1419;-76
2023/01/09 07:27:28;;;;;;;;;;;;;;;18.95;62.03;101191.53;7401536;19;1148;-76
2023/01/09 07:29:56;;;;;;;;;;;;;;;19.17;61.48;101193.31;7401625;19;1488;-76
2023/01/09 07:32:24;;;;;;;;;;;;;;;19.34;61.22;101193.75;7400583;19;1435;-76
2023/01/09 07:34:55;;;;;;;;;;;;;;;19.37;61.02;101182.78;7397881;19;1849;-77
2023/01/09 07:37:23;;;;;;;;;;;;;;;19.33;61.05;101184.84;7402840;19;1426;-76
2023/01/09 07:39:52;;;;;;;;;;;;;;;19.28;61.25;101176.38;7384279;19;1391;-76
2023/01/09 07:42:20;;;;;;;;;;;;;;;19.19;61.61;101167.22;7388583;19;1382;-76
2023/01/09 07:44:48;;;;;;;;;;;;;;;19.05;61.71;101148.75;7399618;19;1702;-76
2023/01/09 07:47:16;;;;;;;;;;;;;;;18.89;62.13;101170.59;7399686;19;1668;-76
2023/01/09 07:49:45;;;;;;;;;;;;;;;18.78;62.49;101170.59;7392138;19;1260;-77
2023/01/09 07:52:16;;;;;;;;;;;;;;;18.76;62.39;101151.09;7403264;19;1536;-76
2023/01/09 07:54:44;;;;;;;;;;;;;;;18.68;62.44;101171.34;7398023;19;1879;-76
2023/01/09 07:57:12;;;;;;;;;;;;;;;18.67;62.77;101158.91;7398581;19;1481;-76
2023/01/09 07:59:40;;;;;;;;;;;;;;;18.62;62.60;101145.06;7399788;19;1335;-76
2023/01/09 08:02:08;;;;;;;;;;;;;;;18.67;62.72;101148.19;7397826;19;1520;-76
2023/01/09 08:04:37;;;;;;;;;;;;;;;18.63;62.42;101146.75;7399711;19;1490;-76
2023/01/09 08:07:05;;;;;;;;;;;;;;;18.64;62.47;101148.47;7400271;19;1568;-76
2023/01/09 08:09:36;;;;;;;;;;;;;;;18.62;62.75;101139.69;7399103;19;1490;-76
2023/01/09 08:12:04;;;;;;;;;;;;;;;18.65;62.52;101127.88;7398714;19;1261;-76
2023/01/09 08:14:34;;;;;;;;;;;;;;;18.63;62.69;101130.69;7399073;19;1854;-76
2023/01/09 08:17:02;;;;;;;;;;;;;;;18.60;62.55;101140.78;7397792;19;1486;-76
2023/01/09 08:19:31;;;;;;;;;;;;;;;18.60;62.48;101136.28;7398962;19;1675;-76
2023/01/09 08:21:59;;;;;;;;;;;;;;;18.60;62.59;101135.41;7397713;19;1379;-76
2023/01/09 08:24:29;;;;;;;;;;;;;;;18.58;62.51;101148.09;7398750;19;1605;-76
2023/01/09 08:26:59;;;;;;;;;;;;;;;18.56;62.41;101148.25;7405151;19;1218;-76
2023/01/09 08:29:29;;;;;;;;;;;;;;;18.58;62.40;101145.41;7406375;19;1758;-76
2023/01/09 08:31:57;;;;;;;;;;;;;;;18.56;62.45;101161.63;7406084;19;1358;-76
2023/01/09 08:34:25;;;;;;;;;;;;;;;18.59;62.28;101158.69;7404378;19;1850;-76
2023/01/09 08:36:54;;;;;;;;;;;;;;;18.74;61.82;101155.72;7406167;19;1591;-76
2023/01/09 08:39:22;;;;;;;;;;;;;;;18.74;61.51;101151.25;7407469;19;1327;-76
2023/01/09 08:47:15;;;;;;;;;;;;;;;18.73;61.71;101132.63;7405432;19;1520;-76
2023/01/09 08:49:44;;;;;;;;;;;;;;;18.55;62.60;101135.81;7407481;19;1375;-76
2023/01/09 08:52:12;;;;;;;;;;;;;;;18.60;62.60;101135.41;7403336;19;1311;-76
2023/01/09 08:54:41;;;;;;;;;;;;;;;18.60;62.33;101124.72;7406698;19;1848;-76
2023/01/09 08:57:09;;;;;;;;;;;;;;;18.38;63.10;101125.59;7408478;19;1068;-76
2023/01/09 08:59:40;;;;;;;;;;;;;;;18.00;63.92;101134.81;7402362;19;1766;-76
2023/01/09 09:02:08;;;;;;;;;;;;;;;17.78;64.98;101125.75;7403415;19;1515;-77
2023/01/09 09:04:36;;;;;;;;;;;;;;;17.60;65.14;101113.81;7401906;19;1518;-76
2023/01/09 09:07:05;;;;;;;;;;;;;;;17.45;65.33;101105.16;7408153;19;1034;-76
2023/01/09 09:09:33;;;;;;;;;;;;;;;17.40;66.15;101113.50;7404665;19;1758;-76
2023/01/09 09:12:01;;;;;;;;;;;;;;;17.33;66.39;101095.38;7406372;19;1585;-76
2023/01/09 09:17:13;;;;;;;;;;;;;;;17.39;66.34;101084.22;7404682;19;1431;-76
2023/01/09 09:19:41;;;;;;;;;;;;;;;17.35;66.87;101078.28;7405910;19;1288;-76
2023/01/09 09:22:09;;;;;;;;;;;;;;;17.30;66.50;101085.78;7405924;19;1397;-76
2023/01/09 09:24:38;;;;;;;;;;;;;;;17.35;66.38;101088.97;7405308;19;1348;-76
2023/01/09 09:27:06;;;;;;;;;;;;;;;17.39;66.91;101084.22;7404044;19;1273;-78
2023/01/09 09:29:35;;;;;;;;;;;;;;;18.35;63.88;101078.50;7405563;19;1518;-78
2023/01/09 09:32:03;;;;;;;;;;;;;;;18.62;62.92;101074.53;7398042;19;1601;-78
2023/01/09 09:34:34;;;;;;;;;;;;;;;18.84;62.43;101077.22;7398089;19;1861;-76
2023/01/09 09:37:02;;;;;;;;;;;;;;;19.04;61.74;101075.56;7394633;19;1267;-76
2023/01/09 09:39:30;;;;;;;;;;;;;;;19.23;61.64;101085.56;7396780;19;1624;-76
2023/01/09 09:45:05;;;;;;;;;;;;;;;19.30;61.39;101079.69;7400183;19;1541;-76
2023/01/09 09:47:42;;;;;;;;;;;;;;;19.16;61.57;101072.81;7402890;19;1691;-76
2023/01/09 09:50:21;;;;;;;;;;;;;;;19.16;62.15;101070.13;7404488;19;1596;-76
2023/01/09 09:52:53;;;;;;;;;;;;;;;19.14;61.96;101053.31;7406593;19;1404;-76
2023/01/09 09:55:25;;;;;;;;;;;;;;;19.18;61.48;101060.13;7406903;19;1845;-76
2023/01/09 09:57:54;;;;;;;;;;;;;;;19.14;61.81;101053.31;7407362;19;1578;-77
2023/01/09 10:00:24;;;;;;;;;;;;;;;19.11;61.87;101056.28;7408165;19;1070;-76
2023/01/09 10:02:55;;;;;;;;;;;;;;;19.16;61.80;101060.28;7404919;19;1820;-76
2023/01/09 10:05:28;;;;;;;;;;;;;;;19.19;61.98;101062.69;7405980;19;1550;-76
2023/01/09 10:07:58;;;;;;;;;;;;;;;19.15;61.98;101052.34;7406260;19;1515;-76
2023/01/09 10:10:31;;;;;;;;;;;;;;;19.16;61.83;101046.00;7406321;19;1618;-76
2023/01/09 10:14:03;;;;;;;;;;;;;;;18.99;61.93;101052.78;7406448;19;1490;-77
2023/01/09 10:15:56;;;;;;;;;;;;;;;18.91;62.11;101047.22;7402997;19;1837;-76
2023/01/09 10:18:31;;;;;;;;;;;;;;;18.97;62.27;101052.91;7404229;19;1367;-77
2023/01/09 10:21:06;;;;;;;;;;;;;;;19.04;62.17;101040.72;7406151;19;1297;-77
2023/01/09 10:23:49;;;;;;;;;;;;;;;19.03;61.89;101055.06;7406254;19;1364;-76
2023/01/09 10:26:22;;;;;;;;;;;;;;;19.12;61.77;101028.47;7404983;19;1281;-76
2023/01/09 10:29:11;;;;;;;;;;;;;;;19.34;60.88;101024.81;7403353;19;1735;-77
2023/01/09 10:31:45;;;;;;;;;;;;;;;19.37;60.86;101028.09;7405042;19;1376;-77
2023/01/09 10:34:18;;;;;;;;;;;;;;;19.46;60.55;101016.56;7403691;19;1662;-77
2023/01/09 10:37:02;;;;;;;;;;;;;;;19.47;60.58;101034.34;7402974;19;1857;-76
2023/01/09 10:39:33;;;;;;;;;;;;;;;19.34;60.76;101025.69;7404051;19;1624;-77
2023/01/09 10:42:03;;;;;;;;;;;;;;;19.42;60.59;101017.81;7405073;19;1480;-77
2023/01/09 10:44:37;;;;;;;;;;;;;;;19.50;60.16;101011.81;7402489;19;1399;-76
2023/01/09 10:47:07;;;;;;;;;;;;;;;19.57;60.28;100996.00;7404733;19;1662;-77
2023/01/09 10:49:36;;;;;;;;;;;;;;;19.33;60.60;101002.50;7403212;19;1596;-77
2023/01/09 10:52:14;;;;;;;;;;;;;;;19.16;58.86;100995.06;7405571;19;1423;-77
2023/01/09 10:54:44;;;;;;;;;;;;;;;19.43;59.12;101005.25;7404907;19;1325;-76
2023/01/09 10:57:15;;;;;;;;;;;;;;;19.39;58.60;101007.34;7403402;19;1847;-76
2023/01/09 10:59:43;;;;;;;;;;;;;;;19.28;58.53;101002.06;7403297;19;1664;-77
2023/01/09 11:02:15;;;;;;;;;;;;;;;19.19;58.83;100982.25;7403007;19;1460;-77
2023/01/09 11:04:43;;;;;;;;;;;;;;;19.39;58.33;100977.00;7402977;19;1490;-77
2023/01/09 11:07:20;;;;;;;;;;;;;;;19.29;59.05;101009.13;7403261;19;1485;-77
2023/01/09 11:09:56;;;;;;;;;;;;;;;19.31;59.08;100990.22;7403771;19;1391;-77
2023/01/09 11:12:25;;;;;;;;;;;;;;;19.35;59.33;100991.66;7405687;19;1347;-77
2023/01/09 11:14:54;;;;;;;;;;;;;;;19.50;59.18;100978.75;7404846;19;1513;-77
2023/01/09 11:17:23;;;;;;;;;;;;;;;19.32;59.52;100981.19;7401726;19;1387;-77
2023/01/09 11:20:02;;;;;;;;;;;;;;;19.58;58.99;100990.53;7404248;19;1281;-77
2023/01/09 11:22:43;;;;;;;;;;;;;;;19.53;59.39;100981.16;7403999;19;1339;-77
2023/01/09 11:25:14;;;;;;;;;;;;;;;19.65;59.32;100978.25;7403201;19;1304;-77
2023/01/09 11:27:42;;;;;;;;;;;;;;;19.73;58.95;100977.59;7404807;19;1311;-77
2023/01/09 11:30:18;;;;;;;;;;;;;;;19.83;59.04;100974.97;7402634;19;1831;-77
2023/01/09 11:32:47;;;;;;;;;;;;;;;19.66;59.52;100963.88;7403471;19;1557;-77
2023/01/09 11:35:18;;;;;;;;;;;;;;;19.67;59.45;100959.34;7403584;19;1837;-77
2023/01/09 11:37:50;;;;;;;;;;;;;;;19.73;59.42;100958.00;7404760;19;1351;-77
2023/01/09 11:40:20;;;;;;;;;;;;;;;19.91;58.98;100947.44;7403732;19;1344;-77
2023/01/09 11:43:05;;;;;;;;;;;;;;;19.81;59.31;100945.56;7404700;19;1287;-77
2023/01/09 11:45:35;;;;;;;;;;;;;;;19.78;59.66;100921.72;7403696;19;1177;-77
2023/01/09 11:48:05;;;;;;;;;;;;;;;19.92;59.23;100925.00;7402382;19;1774;-77
2023/01/09 11:50:33;;;;;;;;;;;;;;;20.00;59.38;100927.84;7402828;19;1828;-77
2023/01/09 11:53:17;;;;;;;;;;;;;;;20.00;59.88;100922.47;7403367;19;1682;-77
2023/01/09 11:55:46;;;;;;;;;;;;;;;19.37;62.07;100918.13;7403071;19;1855;-77
2023/01/09 11:58:15;;;;;;;;;;;;;;;18.91;63.04;100929.31;7400350;19;1473;-77
2023/01/09 12:00:49;;;;;;;;;;;;;;;18.58;63.76;100913.28;7403676;19;1402;-77
2023/01/09 12:03:22;;;;;;;;;;;;;;;18.36;64.67;100913.34;7409398;19;1671;-77
2023/01/09 12:05:56;;;;;;;;;;;;;;;18.24;65.70;100916.09;7413614;19;1296;-77
2023/01/09 12:08:44;;;;;;;;;;;;;;;18.16;65.89;100905.13;7413433;19;988;-77
2023/01/09 12:11:18;;;;;;;;;;;;;;;18.05;66.29;100894.47;7411838;19;1319;-77
2023/01/09 12:14:01;;;;;;;;;;;;;;;18.04;66.39;100887.41;7408288;19;1277;-77
2023/01/09 12:16:34;;;;;;;;;;;;;;;17.98;66.88;100893.28;7405912;19;1831;-77
2023/01/09 12:19:11;;;;;;;;;;;;;;;17.97;66.70;100887.09;7407586;19;1410;-77
2023/01/09 12:21:43;;;;;;;;;;;;;;;17.89;66.92;100876.16;7409604;19;1479;-77
2023/01/09 12:24:23;;;;;;;;;;;;;;;17.88;67.49;100883.31;7409359;19;1403;-77
2023/01/09 12:26:55;;;;;;;;;;;;;;;17.84;67.61;100891.72;7409829;19;1452;-77
2023/01/09 12:29:41;;;;;;;;;;;;;;;17.80;68.19;100883.06;7404076;19;1793;-77
2023/01/09 12:32:18;;;;;;;;;;;;;;;17.83;68.64;100895.34;7408291;19;1439;-77
2023/01/09 12:34:53;;;;;;;;;;;;;;;17.78;68.63;100870.78;7406060;19;1611;-78
2023/01/09 12:37:31;;;;;;;;;;;;;;;17.75;68.75;100871.06;7405896;19;1849;-77
2023/01/09 12:40:08;;;;;;;;;;;;;;;17.73;68.96;100873.00;7407900;19;1533;-77
2023/01/09 12:42:45;;;;;;;;;;;;;;;17.68;68.75;100860.84;7408543;19;1323;-77
2023/01/09 12:45:37;;;;;;;;;;;;;;;17.59;67.67;100866.09;7407241;19;1633;-77
2023/01/09 12:48:09;;;;;;;;;;;;;;;17.61;68.21;100875.69;7397806;19;1766;-77
2023/01/09 12:50:55;;;;;;;;;;;;;;;17.63;67.48;100856.84;7400953;19;1477;-77
2023/01/09 12:53:26;;;;;;;;;;;;;;;17.62;67.98;100849.78;7404148;19;1664;-78
2023/01/09 12:56:00;;;;;;;;;;;;;;;17.60;68.29;100852.59;7407300;19;1861;-77
2023/01/09 12:58:34;;;;;;;;;;;;;;;17.55;68.57;100840.56;7405012;19;1351;-77
2023/01/09 13:01:04;;;;;;;;;;;;;;;17.52;68.94;100849.69;7404740;19;1492;-77
2023/01/09 13:03:36;;;;;;;;;;;;;;;17.51;69.06;100839.97;7402476;19;1625;-77
2023/01/09 13:06:06;;;;;;;;;;;;;;;17.50;68.97;100835.59;7406146;19;1415;-77
2023/01/09 13:08:37;;;;;;;;;;;;;;;17.54;69.01;100830.84;7405147;19;1170;-76
2023/01/09 13:11:10;;;;;;;;;;;;;;;17.53;68.48;100829.13;7404262;19;1841;-77
2023/01/09 13:13:43;;;;;;;;;;;;;;;17.56;68.36;100824.41;7400600;19;1504;-77
2023/01/09 13:16:15;;;;;;;;;;;;;;;17.53;68.70;100815.78;7401149;19;1849;-77
2023/01/09 13:18:45;;;;;;;;;;;;;;;17.64;68.62;100802.38;7398805;19;1565;-78
2023/01/09 13:21:14;;;;;;;;;;;;;;;17.63;68.34;100812.25;7402912;19;1501;-77
2023/01/09 13:23:46;;;;;;;;;;;;;;;17.73;68.58;100809.66;7405256;19;1657;-77